Time;durP1;ratioP1;P1;durP2;ratioP2;P2;SDS_P1;SDS_P2;PMS_P1;PMS_P2;Temp;Humidity;BMP_temperature;BMP_pressure;BME280_temperature;BME280_humidity;BME280_pressure;Samples;Min_cycle;Max_cycle;Signal;HPM_P1;HPM_P2
2022/06/14 00:01:32;;;;;;;14.93;2.63;;;;;;;-146.64;100.00;63203.69;5062816;28;20044;-80
2022/06/14 00:03:58;;;;;;;13.80;2.70;;;;;;;-146.64;100.00;63994.41;5065260;28;20021;-79
2022/06/14 00:06:25;;;;;;;7.55;2.63;;;;;;;-146.64;100.00;63467.22;5048349;28;20439;-79
2022/06/14 00:08:51;;;;;;;9.32;3.03;;;;;;;-146.64;100.00;72967.03;5049849;28;20448;-80
2022/06/14 00:11:28;;;;;;;5.20;2.20;;;;;;;-146.64;100.00;73495.47;5049258;28;20135;-80
2022/06/14 00:13:54;;;;;;;7.20;2.53;;;;;;;-146.64;100.00;76403.06;5052151;28;20363;-80
2022/06/14 00:16:21;;;;;;;9.82;2.70;;;;;;;-146.64;100.00;81165.53;5027683;28;20025;-79
2022/06/14 00:18:46;;;;;;;13.05;2.80;;;;;;;-146.64;100.00;84343.66;5065638;28;20037;-80
2022/06/14 00:21:12;;;;;;;11.30;2.83;;;;;;;-146.64;100.00;85138.56;5046236;28;20025;-80
2022/06/14 00:23:38;;;;;;;11.93;3.17;;;;;;;-146.64;100.00;88054.63;5047369;28;20033;-80
2022/06/14 00:26:04;;;;;;;10.05;2.22;;;;;;;-146.64;100.00;90707.41;5064701;28;20041;-80
2022/06/14 00:28:31;;;;;;;7.83;2.50;;;;;;;-146.64;100.00;92830.91;5047590;28;20371;-79
2022/06/14 00:31:00;;;;;;;12.75;2.90;;;;;;;-146.64;100.00;94424.25;5031869;28;20400;-79
2022/06/14 00:33:25;;;;;;;15.15;2.95;;;;;;;-146.64;100.00;92830.91;5049005;28;20184;-80
2022/06/14 00:36:01;;;;;;;10.47;2.90;;;;;;;-146.64;100.00;92034.47;5029568;28;20498;-79
2022/06/14 00:38:28;;;;;;;9.77;2.65;;;;;;;-146.64;100.00;96018.25;5017019;28;20029;-81
2022/06/14 00:40:56;;;;;;;11.07;3.28;;;;;;;-146.64;100.00;94158.66;5020309;28;20033;-79
2022/06/14 00:43:21;;;;;;;9.10;2.28;;;;;;;-146.64;100.00;95486.84;5015705;28;20115;-79
2022/06/14 00:45:48;;;;;;;7.50;2.70;;;;;;;-146.64;100.00;90972.78;5038058;28;20448;-79
2022/06/14 00:48:43;;;;;;;9.15;2.33;;;;;;;-146.64;100.00;96283.97;5047363;28;20028;-80
2022/06/14 00:51:14;;;;;;;13.02;4.30;;;;;;;-146.64;100.00;92565.41;5040526;28;20483;-79
2022/06/14 00:53:46;;;;;;;7.10;2.72;;;;;;;-146.64;100.00;93361.97;5047471;28;20472;-79
2022/06/14 00:56:16;;;;;;;10.90;2.92;;;;;;;-146.64;100.00;94689.88;5036222;28;20012;-79
2022/06/14 00:58:45;;;;;;;6.25;2.35;;;;;;;-146.64;100.00;94158.66;5054221;28;20061;-79
2022/06/14 01:01:14;;;;;;;9.85;2.63;;;;;;;-146.64;100.00;94158.66;5033050;28;20119;-80
2022/06/14 01:03:43;;;;;;;11.27;2.95;;;;;;;-146.64;100.00;96815.47;5054006;28;20394;-79
2022/06/14 01:06:11;;;;;;;6.30;2.03;;;;;;;-146.64;100.00;95752.53;5069923;28;20561;-79
2022/06/14 01:08:59;;;;;;;12.18;2.45;;;;;;;-146.64;100.00;97878.69;5072453;28;20032;-78
2022/06/14 01:11:40;;;;;;;8.27;2.17;;;;;;;-146.64;100.00;98144.53;5068045;28;20016;-81
2022/06/14 01:14:07;;;;;;;12.50;3.35;;;;;;;-146.64;100.00;97081.25;5054037;28;20027;-79
2022/06/14 01:16:33;;;;;;;;;;;;;;;-146.64;100.00;98942.19;5038562;28;20023;-79
2022/06/14 01:18:58;;;;;;;6.18;2.15;;;;;;;-146.64;100.00;93627.50;5054377;28;20187;-78
2022/06/14 01:21:24;;;;;;;8.10;2.73;;;;;;;-146.64;100.00;95221.19;5037583;28;20115;-78
2022/06/14 01:23:50;;;;;;;7.72;2.40;;;;;;;-146.64;100.00;97347.03;5053895;28;20438;-80
2022/06/14 01:26:19;;;;;;;10.38;2.85;;;;;;;-146.64;100.00;98144.53;5052844;28;20016;-79
2022/06/14 01:28:47;;;;;;;10.23;2.42;;;;;;;-146.64;100.00;99208.09;5054993;28;20032;-78
2022/06/14 01:31:14;;;;;;;7.15;3.25;;;;;;;-146.64;100.00;100271.94;5054266;28;20073;-79
2022/06/14 01:33:43;;;;;;;9.88;2.55;;;;;;;-146.64;100.00;103465.13;5062181;28;20452;-79
2022/06/14 01:36:12;;;;;;;10.70;3.25;;;;;;;-146.64;100.00;99474.03;5055217;28;20028;-79
2022/06/14 01:38:38;;;;;;;4.82;2.10;;;;;;;-146.64;100.00;99739.97;5037353;28;20467;-80
2022/06/14 01:41:18;;;;;;;14.80;2.40;;;;;;;-146.64;100.00;102932.75;5050793;28;20033;-79
2022/06/14 01:44:02;;;;;;;10.43;3.03;;;;;;;-146.64;100.00;106927.25;5057860;28;20028;-80
2022/06/14 01:46:36;;;;;;;8.07;2.17;;;;;;;-146.64;100.00;106660.84;5059761;28;20115;-79
2022/06/14 01:52:02;;;;;;;6.93;2.45;;;;;;;-146.64;100.00;106128.03;5066373;28;20039;-79
2022/06/14 01:54:34;;;;;;;12.20;2.80;;;;;;;-146.64;100.00;106927.25;5065898;28;20067;-80
2022/06/14 01:57:31;;;;;;;14.07;3.22;;;;;;;-146.64;100.00;106660.84;5052430;28;20476;-80
2022/06/14 02:00:07;;;;;;;9.45;2.30;;;;;;;-146.64;100.00;107460.16;5001620;28;20038;-80
2022/06/14 02:02:41;;;;;;;11.27;3.10;;;;;;;-146.64;100.00;105861.69;5036131;28;20025;-79
2022/06/14 02:05:16;;;;;;;12.27;2.78;;;;;;;-146.64;100.00;107993.13;5070753;28;20040;-80
2022/06/14 02:07:53;;;;;;;6.20;3.05;;;;;;;-146.64;100.00;107726.63;5056017;28;20114;-80
2022/06/14 02:10:25;;;;;;;9.27;2.83;;;;;;;-146.64;100.00;105595.31;5068551;28;20033;-79
2022/06/14 02:12:57;;;;;;;8.60;2.50;;;;;;;-146.64;100.00;106394.44;5036648;28;20032;-80
2022/06/14 02:15:28;;;;;;;6.32;2.20;;;;;;;-146.64;100.00;106660.84;5034663;28;20025;-80
2022/06/14 02:18:03;;;;;;;8.23;2.97;;;;;;;-146.64;100.00;105861.69;5058850;28;20105;-80
2022/06/14 02:20:35;;;;;;;9.60;2.63;;;;;;;-146.64;100.00;103198.94;5069852;28;20040;-79
2022/06/14 02:23:05;;;;;;;8.98;2.65;;;;;;;-146.64;100.00;104530.09;5069541;28;20135;-80
2022/06/14 02:25:37;;;;;;;6.18;2.00;;;;;;;-146.64;100.00;104796.38;5052490;28;20478;-79
2022/06/14 02:28:16;;;;;;;10.02;2.78;;;;;;;-146.64;100.00;107726.63;5054939;28;20044;-79
2022/06/14 02:30:55;;;;;;;7.25;2.08;;;;;;;-146.64;100.00;107726.63;5060099;28;20028;-79
2022/06/14 02:33:27;;;;;;;7.38;2.40;;;;;;;-146.64;100.00;108526.16;5031698;28;20036;-80
2022/06/14 02:36:04;;;;;;;9.48;2.60;;;;;;;-146.64;100.00;105062.66;5070258;28;20036;-79
2022/06/14 02:38:35;;;;;;;9.35;2.60;;;;;;;-146.64;100.00;104263.81;5050711;28;20021;-79
2022/06/14 02:41:08;;;;;;;8.75;2.42;;;;;;;-146.64;100.00;105861.69;5044974;28;20496;-79
2022/06/14 02:43:42;;;;;;;14.32;2.83;;;;;;;-146.64;100.00;110125.69;5038803;28;20028;-79
2022/06/14 02:46:16;;;;;;;7.78;2.80;;;;;;;-146.64;100.00;110392.34;5061492;28;20476;-79
2022/06/14 02:49:05;;;;;;;9.15;2.40;;;;;;;-146.64;100.00;109592.44;5034806;28;20045;-79
2022/06/14 02:51:48;;;;;;;6.22;2.58;;;;;;;-146.64;100.00;110392.34;5051108;28;20036;-79
2022/06/14 02:54:30;;;;;;;10.40;2.55;;;;;;;-146.64;100.00;110125.69;5050282;28;20025;-79
2022/06/14 02:57:11;;;;;;;7.90;2.47;;;;;;;-146.64;100.00;110125.69;5051014;28;20115;-80
2022/06/14 03:00:04;;;;;;;3.45;1.98;;;;;;;-146.64;100.00;110392.34;5069320;28;20036;-79
2022/06/14 03:02:54;;;;;;;11.63;2.30;;;;;;;-146.64;100.00;109859.06;5070452;28;20476;-79
2022/06/14 03:05:29;;;;;;;7.70;2.28;;;;;;;-146.64;100.00;110392.34;5068936;28;20044;-80
2022/06/14 03:08:12;;;;;;;8.50;2.75;;;;;;;-146.64;100.00;109592.44;5036559;28;20032;-79
2022/06/14 03:11:08;;;;;;;7.38;2.20;;;;;;;-146.64;100.00;109859.06;5032067;28;20037;-79
2022/06/14 03:13:55;;;;;;;10.98;2.88;;;;;;;-146.64;100.00;109325.84;5058772;28;20029;-79
2022/06/14 03:16:42;;;;;;;8.73;2.13;;;;;;;-146.64;100.00;109859.06;5070016;28;20055;-79
2022/06/14 03:19:19;;;;;;;7.60;3.03;;;;;;;-146.64;100.00;109592.44;5070207;28;20040;-79
2022/06/14 03:21:53;;;;;;;7.33;2.40;;;;;;;-146.64;100.00;110392.34;5062929;28;20048;-79
2022/06/14 03:24:38;;;;;;;8.98;2.38;;;;;;;-146.64;100.00;110659.00;5047920;28;20278;-79
2022/06/14 03:27:09;;;;;;;11.13;3.17;;;;;;;-146.64;100.00;108526.16;5067249;28;20051;-80
2022/06/14 03:30:06;;;;;;;8.43;2.88;;;;;;;-146.64;100.00;108259.63;5069897;28;20055;-79
2022/06/14 03:32:43;;;;;;;7.57;2.45;;;;;;;-146.64;100.00;108259.63;5067845;28;20503;-80
2022/06/14 03:35:12;;;;;;;10.37;3.00;;;;;;;-146.64;100.00;109059.28;5034956;28;20033;-79
2022/06/14 03:37:37;;;;;;;10.32;2.40;;;;;;;-146.64;100.00;110659.00;5050898;28;20028;-79
2022/06/14 03:40:09;;;;;;;10.00;2.87;;;;;;;-146.64;100.00;108792.72;5051475;28;20107;-79
2022/06/14 03:42:35;;;;;;;9.98;2.72;;;;;;;-146.64;100.00;109325.84;5035655;28;20533;-78
2022/06/14 03:45:02;;;;;;;8.25;2.42;;;;;;;-146.64;100.00;110392.34;5067575;28;20036;-79
2022/06/14 03:47:28;;;;;;;;;;;;;;;-146.64;100.00;107726.63;5051640;28;20131;-79
2022/06/14 03:49:56;;;;;;;6.13;2.50;;;;;;;-146.64;100.00;110125.69;5052132;28;20090;-78
2022/06/14 03:52:47;;;;;;;12.00;2.58;;;;;;;-146.64;100.00;111192.41;5034031;28;20056;-79
2022/06/14 03:55:22;;;;;;;8.90;2.42;;;;;;;-146.64;100.00;111192.41;5066890;28;20580;-80
2022/06/14 03:57:50;;;;;;;8.20;2.45;;;;;;;-146.64;100.00;111192.41;5048412;28;20048;-79
2022/06/14 04:00:29;;;;;;;12.40;2.55;;;;;;;-146.64;100.00;111459.13;5064071;28;20029;-79
2022/06/14 04:03:12;;;;;;;9.75;2.78;;;;;;;-146.64;100.00;112259.38;5052305;28;20491;-80
2022/06/14 04:05:55;;;;;;;6.32;2.53;;;;;;;-146.64;100.00;112526.16;5030795;28;20082;-79
2022/06/14 04:08:32;;;;;;;9.50;3.13;;;;;;;-146.64;100.00;113059.81;5041408;28;20388;-79
2022/06/14 04:11:19;;;;;;;;;;;;;;;-146.64;100.00;111992.59;5052073;28;20028;-81
2022/06/14 04:14:19;;;;;;;7.47;2.40;;;;;;;-146.64;100.00;111725.84;5067230;28;20268;-78
2022/06/14 04:16:57;;;;;;;11.30;3.15;;;;;;;-146.64;100.00;111725.84;5031840;28;20041;-79
2022/06/14 04:19:58;;;;;;;7.40;2.45;;;;;;;-146.64;100.00;111459.13;5050397;28;20560;-79
2022/06/14 04:22:27;;;;;;;9.45;2.53;;;;;;;-146.64;100.00;110125.69;5045614;28;20080;-79
2022/06/14 04:25:00;;;;;;;8.10;2.65;;;;;;;-146.64;100.00;110659.00;5067573;28;20396;-79
2022/06/14 04:27:39;;;;;;;8.38;3.08;;;;;;;-146.64;100.00;110125.69;5048931;28;20401;-79
2022/06/14 04:30:11;;;;;;;9.30;2.83;;;;;;;-146.64;100.00;110125.69;5034697;28;20082;-79
2022/06/14 04:32:53;;;;;;;11.52;3.03;;;;;;;-146.64;100.00;110125.69;5066235;28;20028;-79
2022/06/14 04:35:23;;;;;;;9.18;2.45;;;;;;;-146.64;100.00;109325.84;5047200;28;20029;-79
2022/06/14 04:38:00;;;;;;;8.63;3.45;;;;;;;-146.64;100.00;107993.13;5064469;28;20487;-79
2022/06/14 04:40:31;;;;;;;10.07;2.50;;;;;;;-146.64;100.00;105329.00;5067949;28;20044;-79
2022/06/14 04:43:01;;;;;;;8.95;2.72;;;;;;;-146.64;100.00;104796.38;5068324;28;20020;-79
2022/06/14 04:45:41;;;;;;;11.98;3.28;;;;;;;-146.64;100.00;102134.31;5048437;28;20503;-79
2022/06/14 04:48:18;;;;;;;8.85;3.08;;;;;;;-146.64;100.00;100537.94;5061242;28;20380;-79
2022/06/14 04:50:58;;;;;;;9.68;3.28;;;;;;;-146.64;100.00;101336.06;5049334;28;20029;-80
2022/06/14 04:53:28;;;;;;;12.45;3.15;;;;;;;-146.64;100.00;101602.13;5042782;28;20147;-79
2022/06/14 04:56:01;;;;;;;11.05;3.83;;;;;;;-146.64;100.00;100271.94;5051836;28;20036;-79
2022/06/14 04:58:36;;;;;;;7.97;2.95;;;;;;;-146.64;100.00;95486.84;5046623;28;20028;-80
2022/06/14 05:01:07;;;;;;;9.35;3.13;;;;;;;-146.64;100.00;96283.97;5033445;28;20028;-80
2022/06/14 05:03:47;;;;;;;11.32;3.53;;;;;;;-146.64;100.00;95486.84;5050789;28;20024;-79
2022/06/14 05:06:37;;;;;;;5.88;3.35;;;;;;;-146.64;100.00;91769.03;5040542;28;20033;-80
2022/06/14 05:09:34;;;;;;;9.80;3.55;;;;;;;-146.64;100.00;89646.09;5064889;28;20064;-79
2022/06/14 05:12:25;;;;;;;5.53;2.70;;;;;;;-146.64;100.00;84608.59;5027415;28;20037;-80
2022/06/14 05:15:00;;;;;;;7.38;2.10;;;;;;;-146.64;100.00;65312.66;5029195;28;20092;-80
2022/06/14 05:17:32;;;;;;;7.93;3.17;;;;;;;-146.64;100.00;36027.75;5067693;28;20036;-80
2022/06/14 05:20:19;;;;;;;9.80;3.33;;;;;;;-146.64;100.00;37547.41;5049559;28;20043;-81
2022/06/14 05:23:07;;;;;;;14.48;2.90;;;;;;;-146.64;100.00;37942.25;5034046;28;20024;-81
2022/06/14 05:25:51;;;;;;;;;;;;;;;-146.64;100.00;37913.59;5046034;28;20629;-81
2022/06/14 05:28:27;;;;;;;8.85;2.72;;;;;;;-146.64;100.00;37766.31;5064813;28;19923;-81
2022/06/14 05:31:04;;;;;;;9.13;3.05;;;;;;;-146.64;99.59;37966.78;5050877;28;20028;-81
2022/06/14 05:33:42;;;;;;;12.23;4.10;;;;;;;-146.64;96.17;37657.88;5044704;28;20024;-82
2022/06/14 05:36:25;;;;;;;13.70;3.35;;;;;;;-146.64;94.87;37872.69;5053734;28;20123;-82
2022/06/14 05:38:57;;;;;;;13.88;3.45;;;;;;;-146.64;93.69;37749.94;5049856;28;20040;-82
2022/06/14 05:42:14;;;;;;;10.57;3.25;;;;;;;-146.64;87.61;37529.00;5030611;28;20088;-81
2022/06/14 05:44:45;;;;;;;20.23;3.97;;;;;;;-146.64;86.52;37484.00;5026281;28;20536;-82
2022/06/14 05:47:27;;;;;;;25.83;4.00;;;;;;;-146.64;82.68;37596.50;5064932;28;20428;-82
2022/06/14 05:49:57;;;;;;;10.27;3.90;;;;;;;-146.64;78.47;37569.91;5052479;28;20371;-81
2022/06/14 05:52:29;;;;;;;13.48;3.67;;;;;;;-146.64;71.75;37263.06;5049376;28;20028;-81
2022/06/14 05:55:05;;;;;;;11.18;3.05;;;;;;;-146.64;73.88;37402.16;5049386;28;20036;-82
2022/06/14 05:57:38;;;;;;;10.77;3.50;;;;;;;-146.64;66.43;37209.88;5033736;28;20059;-82
2022/06/14 06:00:21;;;;;;;12.82;3.40;;;;;;;-146.64;65.49;37238.53;5035659;28;20060;-82
2022/06/14 06:02:55;;;;;;;10.60;3.42;;;;;;;-146.64;69.98;37400.13;5071435;28;20392;-82
2022/06/14 06:05:48;;;;;;;9.98;3.40;;;;;;;-146.64;71.42;37479.91;5070711;28;20574;-82
2022/06/14 06:08:32;;;;;;;6.68;2.40;;;;;;;-146.64;72.00;37430.81;5049185;28;20040;-82
2022/06/14 06:11:06;;;;;;;9.52;2.45;;;;;;;-146.64;63.45;37156.72;5071660;28;20073;-82
2022/06/14 06:13:55;;;;;;;7.30;2.55;;;;;;;-146.64;62.86;37164.88;5047651;28;20025;-82
2022/06/14 06:16:37;;;;;;;14.75;2.78;;;;;;;-146.64;64.46;37394.00;5035042;28;20036;-82
2022/06/14 06:19:11;;;;;;;8.80;2.80;;;;;;;-146.64;62.09;37373.53;5050575;28;20067;-82
2022/06/14 06:21:48;;;;;;;7.57;2.28;;;;;;;-146.64;61.78;37271.25;5050752;28;20055;-83
2022/06/14 06:24:21;;;;;;;6.50;1.88;;;;;;;-146.64;60.54;37144.44;5047772;28;20107;-83
2022/06/14 06:26:50;;;;;;;9.40;1.95;;;;;;;-146.64;57.42;37171.03;5053499;28;20028;-83
2022/06/14 06:29:34;;;;;;;5.97;2.15;;;;;;;-146.64;56.77;37222.16;5049962;28;20029;-83
2022/06/14 06:32:00;;;;;;;5.20;1.80;;;;;;;-146.64;56.25;37258.97;5037478;28;20408;-82
2022/06/14 06:34:25;;;;;;;10.23;2.15;;;;;;;-146.64;54.16;37275.34;5050849;28;20353;-82
2022/06/14 06:37:03;;;;;;;10.00;1.73;;;;;;;-146.64;53.63;37246.72;5047989;28;20034;-84
2022/06/14 06:39:37;;;;;;;14.65;2.17;;;;;;;-146.64;52.83;37123.97;5069974;28;20090;-83
2022/06/14 06:42:26;;;;;;;9.82;1.58;;;;;;;-146.64;48.84;36939.88;5048035;28;20036;-83
2022/06/14 06:45:13;;;;;;;4.95;1.77;;;;;;;-146.64;49.25;37062.63;5064913;28;20050;-82
2022/06/14 06:47:52;;;;;;;6.95;2.13;;;;;;;-146.64;47.47;36837.63;5036705;28;20115;-82
2022/06/14 06:50:34;;;;;;;11.45;1.70;;;;;;;-146.64;49.99;37083.06;5065041;28;20032;-81
2022/06/14 06:53:13;;;;;;;10.98;2.50;;;;;;;-146.64;50.80;37038.06;5050976;28;20054;-81
2022/06/14 06:55:44;;;;;;;9.63;2.25;;;;;;;-146.64;48.77;37038.06;5052952;28;20029;-81
2022/06/14 06:58:25;;;;;;;11.60;1.70;;;;;;;-146.64;49.52;36972.63;5069703;28;20447;-82
2022/06/14 07:00:57;;;;;;;7.60;2.00;;;;;;;-146.64;49.72;37128.06;5051056;28;20424;-80
2022/06/14 07:03:30;;;;;;;10.77;1.70;;;;;;;-146.64;47.60;36917.41;5045438;28;20032;-80
2022/06/14 07:05:59;;;;;;;8.35;1.33;;;;;;;-146.64;47.68;36764.00;5069309;28;20020;-81
2022/06/14 07:08:35;;;;;;;5.78;1.08;;;;;;;-146.64;47.53;36882.63;5050540;28;20059;-81
2022/06/14 07:11:01;;;;;;;4.68;1.42;;;;;;;-146.64;48.17;36991.03;5066322;28;20035;-82
2022/06/14 07:13:30;;;;;;;10.63;1.85;;;;;;;-146.64;47.53;37230.34;5041499;28;20052;-81
2022/06/14 07:16:22;;;;;;;9.85;1.70;;;;;;;-146.64;46.33;36919.44;5060132;28;20078;-82
2022/06/14 07:18:51;;;;;;;15.05;1.75;;;;;;;-146.64;46.28;37115.78;5065028;28;20100;-82
2022/06/14 07:21:19;;;;;;;4.90;1.27;;;;;;;-146.64;45.94;36931.72;5051504;28;20469;-82
2022/06/14 07:23:57;;;;;;;6.32;1.50;;;;;;;-146.64;46.66;36935.81;5056209;28;20025;-82
2022/06/14 07:26:23;;;;;;;4.20;1.33;;;;;;;-146.64;46.42;36976.72;5033950;28;20360;-82
2022/06/14 07:29:05;;;;;;;9.60;1.40;;;;;;;-146.64;44.62;36804.91;5069581;28;20115;-81
2022/06/14 07:31:47;;;;;;;11.60;1.70;;;;;;;-146.64;45.55;37168.97;5067630;28;20428;-81
2022/06/14 07:34:13;;;;;;;9.57;2.00;;;;;;;-146.64;45.15;37353.06;5050014;28;20024;-81
2022/06/14 07:36:57;;;;;;;7.22;1.58;;;;;;;-146.64;48.10;37226.25;5051819;28;20119;-82
2022/06/14 07:39:28;;;;;;;5.15;1.77;;;;;;;-146.64;46.45;37107.63;5051509;28;20029;-81
2022/06/14 07:42:05;;;;;;;3.70;1.20;;;;;;;-146.64;47.29;37359.22;5052118;28;20021;-82
2022/06/14 07:44:39;;;;;;;15.35;1.52;;;;;;;-146.64;47.41;37242.63;5060907;28;20026;-81
2022/06/14 07:47:38;;;;;;;5.43;2.00;;;;;;;-146.64;47.61;37095.34;5050947;28;20037;-81
2022/06/14 07:50:17;;;;;;;9.25;1.70;;;;;;;-146.64;48.49;37226.25;5065205;28;20545;-81
2022/06/14 07:52:50;;;;;;;6.43;1.88;;;;;;;-146.64;48.30;37238.53;5034489;28;20434;-83
2022/06/14 07:55:32;;;;;;;5.20;1.90;;;;;;;-146.64;48.08;37275.34;5053193;28;20030;-81
2022/06/14 07:58:00;;;;;;;7.85;1.60;;;;;;;-146.64;49.24;37377.63;5050256;28;20056;-82
2022/06/14 08:03:23;;;;;;;7.85;1.60;;;;;;;-146.64;51.47;37467.63;5064966;28;20502;-81
2022/06/14 08:05:51;;;;;;;4.65;1.63;;;;;;;-146.64;52.22;37402.16;5051106;28;20078;-80
2022/06/14 08:08:29;;;;;;;8.23;1.92;;;;;;;-146.64;50.78;37733.56;5047863;28;20075;-79
2022/06/14 08:10:57;;;;;;;10.80;1.52;;;;;;;-146.64;56.27;37668.09;5044376;28;20033;-79
2022/06/14 08:13:25;;;;;;;6.25;1.60;;;;;;;-146.64;54.42;37741.75;5065745;28;20365;-78
2022/06/14 08:15:55;;;;;;;4.90;1.65;;;;;;;-146.64;53.18;37745.84;5030585;28;20056;-78
2022/06/14 08:18:48;;;;;;;8.38;1.95;;;;;;;-146.64;53.25;37606.75;5045886;28;20128;-79
2022/06/14 08:21:25;;;;;;;9.70;2.22;;;;;;;-146.64;56.21;37723.34;5050658;28;20131;-81
2022/06/14 08:23:53;;;;;;;4.53;1.88;;;;;;;-146.64;56.24;37664.00;5036950;28;20036;-78
2022/06/14 08:26:35;;;;;;;7.97;1.92;;;;;;;-146.64;56.20;37543.31;5044410;28;20020;-78
2022/06/14 08:29:18;;;;;;;7.03;1.63;;;;;;;-146.64;55.86;37422.63;5062269;28;20032;-81
2022/06/14 08:32:04;;;;;;;7.72;1.80;;;;;;;-146.64;54.96;37590.38;5065520;28;20479;-79
2022/06/14 08:34:49;;;;;;;5.63;1.45;;;;;;;-146.64;57.72;37475.81;5065888;28;20028;-79
2022/06/14 08:37:29;;;;;;;4.68;1.58;;;;;;;-146.64;54.75;37627.19;5039740;28;20101;-80
2022/06/14 08:40:03;;;;;;;5.85;1.90;;;;;;;-146.64;56.03;37443.09;5034815;28;20032;-80
2022/06/14 08:42:32;;;;;;;10.20;2.47;;;;;;;-146.64;55.27;37561.72;5042787;28;20028;-80
2022/06/14 08:45:29;;;;;;;8.98;1.75;;;;;;;-146.64;54.61;37500.34;5047513;28;20436;-80
2022/06/14 08:48:23;;;;;;;6.43;2.00;;;;;;;-146.64;55.18;37500.34;5043308;28;20373;-80
2022/06/14 08:51:10;;;;;;;5.07;1.67;;;;;;;-146.64;53.13;37406.25;5063752;28;20037;-80
2022/06/14 08:54:08;;;;;;;5.65;1.55;;;;;;;-146.64;53.18;37432.84;5040221;28;20049;-79
2022/06/14 08:56:55;;;;;;;8.32;2.30;;;;;;;-146.64;52.84;37606.75;5031312;28;20072;-79
2022/06/14 08:59:27;;;;;;;4.95;2.08;;;;;;;-146.64;56.14;37449.22;5047275;28;20037;-80
2022/06/14 09:02:01;;;;;;;7.25;2.20;;;;;;;-146.64;54.46;37457.41;5050844;28;20032;-78
2022/06/14 09:04:50;;;;;;;5.60;2.20;;;;;;;-146.64;53.81;37316.25;5044506;28;20475;-81
2022/06/14 09:08:03;;;;;;;7.75;2.05;;;;;;;-146.64;52.91;37569.91;5038993;28;20384;-81
2022/06/14 09:10:52;;;;;;;7.32;2.22;;;;;;;-146.64;54.54;37336.72;5012396;28;20067;-79
2022/06/14 09:13:32;;;;;;;4.72;1.73;;;;;;;-146.64;54.53;37238.53;5066076;28;20052;-79
2022/06/14 09:16:11;;;;;;;4.50;1.80;;;;;;;-146.64;54.33;37324.44;5033123;28;20021;-79
2022/06/14 09:18:54;;;;;;;5.85;1.60;;;;;;;-146.64;53.76;37261.03;5034333;28;20028;-79
2022/06/14 09:21:40;;;;;;;8.55;2.58;;;;;;;-146.64;51.66;37007.38;5057793;28;20056;-79
2022/06/14 09:24:36;;;;;;;5.82;1.70;;;;;;;-146.64;53.77;37136.25;5066626;28;20032;-79
2022/06/14 09:27:06;;;;;;;5.82;1.70;;;;;;;-146.64;53.10;37001.25;5067948;28;20024;-80
2022/06/14 09:29:52;;;;;;;8.18;2.03;;;;;;;-146.64;54.88;37406.25;5039834;28;20511;-80
2022/06/14 09:36:02;;;;;;;7.82;1.83;;;;;;;-146.64;55.79;37512.63;5062942;28;20056;-79
2022/06/14 09:39:05;;;;;;;6.90;1.95;;;;;;;-146.64;54.69;37463.53;5055498;28;20157;-79
2022/06/14 09:41:46;;;;;;;8.70;2.08;;;;;;;-146.64;53.79;37555.59;5048326;28;20044;-79
2022/06/14 09:44:20;;;;;;;5.93;2.17;;;;;;;-146.64;55.73;37396.03;5052492;28;20119;-81
2022/06/14 09:47:23;;;;;;;6.03;2.08;;;;;;;-146.64;53.44;37222.16;5067644;28;20549;-79
2022/06/14 09:49:56;;;;;;;4.55;2.00;;;;;;;-146.64;52.85;37050.34;5071451;28;20029;-78
2022/06/14 09:52:55;;;;;;;4.15;2.10;;;;;;;-146.64;51.87;37033.97;5049841;28;20033;-79
2022/06/14 09:55:25;;;;;;;7.40;2.40;;;;;;;-146.64;49.04;36976.72;5068975;28;20029;-79
2022/06/14 09:58:09;;;;;;;15.73;2.78;;;;;;;-146.64;49.46;37017.63;5052690;28;20115;-78
2022/06/14 10:01:25;;;;;;;4.43;1.98;;;;;;;-146.64;49.94;36915.34;5061219;28;20487;-79
2022/06/14 10:04:18;;;;;;;4.45;2.15;;;;;;;-146.64;50.92;37222.16;4993453;28;20065;-78
2022/06/14 10:07:15;;;;;;;4.25;2.53;;;;;;;-146.64;52.96;37475.81;4987079;28;20070;-79
2022/06/14 10:10:02;;;;;;;4.60;1.88;;;;;;;-146.64;54.18;37479.91;5056971;28;20499;-78
2022/06/14 10:13:05;;;;;;;4.47;2.17;;;;;;;-146.64;53.00;37637.41;5063815;28;20053;-81
2022/06/14 10:16:04;;;;;;;5.80;2.47;;;;;;;-146.64;51.35;37258.97;5066928;28;20109;-81
2022/06/14 10:19:03;;;;;;;8.00;2.33;;;;;;;-146.64;50.84;36872.41;5060725;28;20085;-80
2022/06/14 10:21:43;;;;;;;;;;;;;;;-146.64;49.82;36751.72;5069094;28;20028;-80
2022/06/14 10:24:36;;;;;;;3.85;1.73;;;;;;;-146.64;49.17;36719.00;5065330;28;20377;-81
2022/06/14 10:30:32;;;;;;;5.15;1.80;;;;;;;-146.64;49.80;36903.06;5068536;28;20075;-79
2022/06/14 10:33:20;;;;;;;8.25;2.40;;;;;;;-146.64;48.68;36880.56;5045546;28;20021;-78
2022/06/14 10:35:58;;;;;;;5.43;2.17;;;;;;;-146.64;48.29;36890.81;5031600;28;20428;-78
2022/06/14 10:38:50;;;;;;;8.35;1.90;;;;;;;-146.64;49.27;36735.38;5046535;28;20075;-80
2022/06/14 10:41:38;;;;;;;4.00;1.92;;;;;;;-146.64;47.97;36661.72;5044399;28;20060;-80
2022/06/14 10:44:41;;;;;;;4.32;1.42;;;;;;;-146.64;47.75;36508.34;5046243;28;20489;-78
2022/06/14 10:47:16;;;;;;;3.55;2.10;;;;;;;-146.64;47.04;36449.03;5015838;28;20037;-80
2022/06/14 10:50:15;;;;;;;8.27;2.22;;;;;;;-146.64;46.02;36432.69;5067872;28;20128;-80
2022/06/14 10:53:03;;;;;;;6.75;1.80;;;;;;;-146.64;46.80;36424.50;5051535;28;20048;-80
2022/06/14 10:55:38;;;;;;;6.40;2.00;;;;;;;-146.64;45.47;36406.09;5050991;28;20028;-83
2022/06/14 10:58:12;;;;;;;4.07;1.80;;;;;;;-146.64;46.87;36559.47;5067524;28;20090;-84
2022/06/14 11:00:46;;;;;;;6.22;1.95;;;;;;;-146.64;45.22;36716.94;5067307;28;20028;-83
2022/06/14 11:03:44;;;;;;;5.30;2.17;;;;;;;-146.64;45.45;36870.34;5063066;28;20119;-83
2022/06/14 11:06:28;;;;;;;6.45;2.20;;;;;;;-146.64;46.14;36584.00;5053779;28;20036;-84
2022/06/14 11:09:05;;;;;;;4.88;1.90;;;;;;;-146.64;46.90;36649.47;5053740;28;20115;-83
2022/06/14 11:11:40;;;;;;;7.57;1.70;;;;;;;-146.64;45.56;36723.09;5074095;28;20063;-81
2022/06/14 11:14:30;;;;;;;5.40;2.00;;;;;;;-146.64;43.94;36727.19;5072218;28;20107;-81
2022/06/14 11:17:08;;;;;;;5.75;2.15;;;;;;;-146.64;45.69;36399.94;5051869;28;20195;-83
2022/06/14 11:20:02;;;;;;;6.65;2.08;;;;;;;-146.64;46.42;36375.41;5064338;28;20043;-82
2022/06/14 11:22:40;;;;;;;2.80;1.67;;;;;;;-146.64;45.17;36432.69;5070320;28;20035;-84
2022/06/14 11:25:08;;;;;;;4.40;2.00;;;;;;;-146.64;46.26;36449.03;5069111;28;20029;-82
2022/06/14 11:27:41;;;;;;;3.28;1.95;;;;;;;-146.64;45.70;36440.84;5064512;28;20036;-84
2022/06/14 11:30:27;;;;;;;6.57;2.28;;;;;;;-146.64;46.14;36021.63;5055721;28;20029;-83
2022/06/14 11:33:26;;;;;;;11.25;2.22;;;;;;;-146.64;44.63;36166.81;5051116;28;20037;-83
2022/06/14 11:36:53;;;;;;;6.10;2.33;;;;;;;-146.64;45.29;36156.59;5060654;28;20043;-82
2022/06/14 11:39:18;;;;;;;5.40;2.60;;;;;;;-146.64;44.67;36220.00;4988667;28;20034;-81
2022/06/14 11:41:49;;;;;;;4.40;2.27;;;;;;;-146.64;45.00;36285.44;5009982;28;20445;-82
2022/06/14 11:44:27;;;;;;;5.95;2.20;;;;;;;-146.64;45.82;36624.91;5023227;28;20097;-81
2022/06/14 11:47:05;;;;;;;6.53;2.50;;;;;;;-146.64;47.08;37015.56;5069051;28;20468;-81
2022/06/14 11:49:40;;;;;;;7.55;2.17;;;;;;;-146.64;46.91;36837.63;5071589;28;20105;-82
2022/06/14 11:52:39;;;;;;;5.43;2.22;;;;;;;-146.64;44.79;36479.72;5053563;28;20074;-81
2022/06/14 11:55:19;;;;;;;4.35;2.15;;;;;;;-146.64;43.75;36436.75;5071448;28;20154;-82
2022/06/14 11:57:55;;;;;;;6.50;2.35;;;;;;;-146.64;44.03;36326.34;5053210;28;20033;-82
2022/06/14 12:00:29;;;;;;;5.78;2.05;;;;;;;-146.64;44.11;36011.41;5053295;28;20031;-82
2022/06/14 12:02:56;;;;;;;8.63;2.65;;;;;;;-146.64;43.01;36393.81;5049722;28;20053;-82
2022/06/14 12:05:30;;;;;;;6.85;2.60;;;;;;;-146.64;43.76;36305.88;5051141;28;20021;-82
2022/06/14 12:08:12;;;;;;;6.38;2.38;;;;;;;-146.64;43.15;36162.72;5049810;28;20032;-81
2022/06/14 12:11:02;;;;;;;10.63;2.70;;;;;;;-146.64;43.42;36481.75;5051202;28;20419;-82
2022/06/14 12:13:42;;;;;;;6.53;2.50;;;;;;;-146.64;42.88;36264.97;5034799;28;20156;-81